^^

Storico da Wunderground


Storico stazione Meteotecchiena
 
Giorno Sommario per Giugno 18, 2024 Unità:  Metrico    Inglese   Entrambi
Giorno Settimana Mese Anno
  Corrente: Max: Min: Media:
Temperatura: 25 °C 34.1 °C 16.2 °C 25.7 °C
Dew Point: 24.2 °C 32.2 °C °C 21.1 °C
Umidità: 95% 95% 95% 95%
Velocità vento: 0km/h 10.2km/h 0km/h 2.1km/h
Raffica: 0km/h 14.5km/h - -
DirezioneCalm - - SSE
Pressione: 1017.1 hPa 1018.8 hPa 1016.4 hPa -
Precipitazioni: 0.0 mm      
 
 
Tabulato Dati per Giugno 18, 2024
Ora Temperatura Dew Point Pressione Direzione Velocità vento Raffica Umidità Intensità pioggia (oraria) Info solare
00:04 19.6 °C 18.7 °C 1017.4 hPa Calm     95% 0.0 mm 0 W/m2
00:09 19.6 °C 18.8 °C 1017.4 hPa Calm     95% 0.0 mm 0 W/m2
00:14 19.6 °C 18.7 °C 1017.4 hPa Calm     95% 0.0 mm 0 W/m2
00:19 19.4 °C 18.6 °C 1017.4 hPa Calm     95% 0.0 mm 0 W/m2
00:24 19.3 °C 18.4 °C 1017.4 hPa Calm     95% 0.0 mm 0 W/m2
00:29 19.1 °C 18.3 °C 1017.4 hPa Calm     95% 0.0 mm 0 W/m2
00:34 19 °C 18.2 °C 1017.4 hPa Calm     95% 0.0 mm 0 W/m2
00:39 18.9 °C 18.1 °C 1017.4 hPa Calm     95% 0.0 mm 0 W/m2
00:44 18.8 °C 18 °C 1017.4 hPa Calm     95% 0.0 mm 0 W/m2
00:49 18.7 °C 17.9 °C 1017.4 hPa Calm     95% 0.0 mm 0 W/m2
00:54 18.6 °C 17.8 °C 1017.4 hPa Calm     95% 0.0 mm 0 W/m2
00:59 18.5 °C 17.6 °C 1017.5 hPa Calm     95% 0.0 mm 0 W/m2
01:04 18.3 °C 17.5 °C 1017.5 hPa Calm     95% 0.0 mm 0 W/m2
01:09 18.2 °C 17.3 °C 1017.6 hPa Calm     95% 0.0 mm 0 W/m2
01:14 18.2 °C 17.3 °C 1017.6 hPa Calm     95% 0.0 mm 0 W/m2
01:19 18.2 °C 17.3 °C 1017.6 hPa Calm     95% 0.0 mm 0 W/m2
01:24 18.3 °C 17.4 °C 1017.6 hPa Calm     95% 0.0 mm 0 W/m2
01:29 18.4 °C 17.6 °C 1017.6 hPa Calm     95% 0.0 mm 0 W/m2
01:34 18.5 °C 17.7 °C 1017.5 hPa Calm     95% 0.0 mm 0 W/m2
01:39 18.6 °C 17.8 °C 1017.5 hPa Calm     95% 0.0 mm 0 W/m2
01:44 18.7 °C 17.8 °C 1017.5 hPa Calm     95% 0.0 mm 0 W/m2
01:49 18.7 °C 17.8 °C 1017.5 hPa Calm     95% 0.0 mm 0 W/m2
01:54 18.6 °C 17.8 °C 1017.6 hPa Calm     95% 0.0 mm 0 W/m2
01:59 18.6 °C 17.7 °C 1017.6 hPa Calm     95% 0.0 mm 0 W/m2
02:04 18.4 °C 17.6 °C 1017.6 hPa Calm     95% 0.0 mm 0 W/m2
02:09 18.2 °C 17.4 °C 1017.6 hPa Calm     95% 0.0 mm 0 W/m2
02:14 18.1 °C 17.3 °C 1017.6 hPa Calm     95% 0.0 mm 0 W/m2
02:19 18 °C 17.2 °C 1017.6 hPa Calm     95% 0.0 mm 0 W/m2
02:24 17.9 °C 17.1 °C 1017.6 hPa Calm     95% 0.0 mm 0 W/m2
02:29 17.9 °C 17.1 °C 1017.6 hPa Calm     95% 0.0 mm 0 W/m2
02:34 17.9 °C 17.1 °C 1017.6 hPa Calm     95% 0.0 mm 0 W/m2
02:39 18.1 °C 17.2 °C 1017.6 hPa Calm     95% 0.0 mm 0 W/m2
02:44 18.1 °C 17.3 °C 1017.6 hPa Calm     95% 0.0 mm 0 W/m2
02:49 18.1 °C 17.2 °C 1017.6 hPa Calm     95% 0.0 mm 0 W/m2
02:54 17.9 °C 17.1 °C 1017.6 hPa Calm     95% 0.0 mm 0 W/m2
02:59 17.7 °C 16.9 °C 1017.6 hPa Calm     95% 0.0 mm 0 W/m2
03:04 17.5 °C 16.7 °C 1017.6 hPa Calm     95% 0.0 mm 0 W/m2
03:09 17.5 °C 16.6 °C 1017.6 hPa Calm     95% 0.0 mm 0 W/m2
03:14 17.4 °C 16.6 °C 1017.6 hPa Calm     95% 0.0 mm 0 W/m2
03:19 17.4 °C 16.5 °C 1017.7 hPa Calm     95% 0.0 mm 0 W/m2
03:24 17.2 °C 16.4 °C 1017.7 hPa Calm     95% 0.0 mm 0 W/m2
03:29 17.2 °C 16.3 °C 1017.7 hPa Calm     95% 0.0 mm 0 W/m2
03:34 17.2 °C 16.3 °C 1017.7 hPa Calm     95% 0.0 mm 0 W/m2
03:39 17.2 °C 16.3 °C 1017.7 hPa Calm     95% 0.0 mm 0 W/m2
03:44 17.2 °C 16.3 °C 1017.7 hPa Calm     95% 0.0 mm 0 W/m2
03:49 17.1 °C 16.2 °C 1017.7 hPa Calm     95% 0.0 mm 0 W/m2
03:54 17.1 °C 16.3 °C 1017.6 hPa Calm     95% 0.0 mm 0 W/m2
03:59 17.2 °C 16.3 °C 1017.6 hPa Calm     95% 0.0 mm 0 W/m2
04:04 17.2 °C 16.3 °C 1017.5 hPa Calm     95% 0.0 mm 0 W/m2
04:09 17.3 °C 16.4 °C 1017.5 hPa Calm     95% 0.0 mm 0 W/m2
04:14 17.3 °C 16.4 °C 1017.6 hPa Calm     95% 0.0 mm 0 W/m2
04:19 17.2 °C 16.4 °C 1017.6 hPa Calm     95% 0.0 mm 0 W/m2
04:24 17.1 °C 16.3 °C 1017.6 hPa Calm     95% 0.0 mm 0 W/m2
04:29 17.1 °C 16.3 °C 1017.6 hPa Calm     95% 0.0 mm 0 W/m2
04:34 17.1 °C 16.2 °C 1017.5 hPa Calm     95% 0.0 mm 0 W/m2
04:39 17 °C 16.2 °C 1017.6 hPa Calm     95% 0.0 mm 0 W/m2
04:44 16.9 °C 16.1 °C 1017.6 hPa Calm     95% 0.0 mm 0 W/m2
04:49 16.9 °C 16.1 °C 1017.6 hPa Calm     95% 0.0 mm 0 W/m2
04:54 16.9 °C 16 °C 1017.6 hPa Calm     95% 0.0 mm 0 W/m2
04:59 16.8 °C 16 °C 1017.7 hPa Calm     95% 0.0 mm 0 W/m2
05:04 16.8 °C 16 °C 1017.8 hPa Calm     95% 0.0 mm 0 W/m2
05:09 16.7 °C 15.9 °C 1017.9 hPa Calm     95% 0.0 mm 0 W/m2
05:14 16.7 °C 15.9 °C 1017.9 hPa Calm     95% 0.0 mm 0 W/m2
05:19 16.6 °C 15.8 °C 1018.0 hPa Calm     95% 0.0 mm 0 W/m2
05:24 16.4 °C 15.7 °C 1018.0 hPa Calm     95% 0.0 mm 0 W/m2
05:29 16.4 °C 15.6 °C 1018.0 hPa Calm     95% 0.0 mm 0 W/m2
05:34 16.3 °C 15.5 °C 1018.0 hPa Calm     95% 0.0 mm 5 W/m2
05:39 16.3 °C 15.5 °C 1018.0 hPa Calm     95% 0.0 mm 7 W/m2
05:44 16.3 °C 15.5 °C 1018.0 hPa Calm     95% 0.0 mm 9 W/m2
05:49 16.2 °C 15.5 °C 1018.1 hPa Calm     95% 0.0 mm 11 W/m2
05:54 16.2 °C 15.4 °C 1018.1 hPa Calm     95% 0.0 mm 12 W/m2
05:59 16.2 °C 15.4 °C 1018.1 hPa Calm     95% 0.0 mm 14 W/m2
06:04 16.2 °C 15.4 °C 1018.2 hPa Calm     95% 0.0 mm 16 W/m2
06:09 16.2 °C 15.5 °C 1018.3 hPa Calm     95% 0.0 mm 21 W/m2
06:14 16.2 °C 15.4 °C 1018.3 hPa Calm     95% 0.0 mm 46 W/m2
06:19 16.2 °C 15.5 °C 1018.3 hPa Calm     95% 0.0 mm 56 W/m2
06:24 16.4 °C 15.6 °C 1018.4 hPa Calm     95% 0.0 mm 67 W/m2
06:29 16.7 °C 15.9 °C 1018.4 hPa Calm     95% 0.0 mm 77 W/m2
06:34 17 °C 16.1 °C 1018.4 hPa Calm     95% 0.0 mm 90 W/m2
06:39 17.2 °C 16.4 °C 1018.4 hPa Calm     95% 0.0 mm 105 W/m2
06:44 17.6 °C 16.7 °C 1018.5 hPa Calm     95% 0.0 mm 118 W/m2
06:49 18 °C 17.2 °C 1018.5 hPa Calm     95% 0.0 mm 130 W/m2
06:54 18.4 °C 17.5 °C 1018.5 hPa Calm     95% 0.0 mm 142 W/m2
06:59 18.7 °C 17.9 °C 1018.5 hPa Calm     95% 0.0 mm 156 W/m2
07:04 18.9 °C 18.1 °C 1018.5 hPa Calm     95% 0.0 mm 167 W/m2
07:09 19.3 °C 18.4 °C 1018.6 hPa Calm     95% 0.0 mm 181 W/m2
07:14 19.8 °C 18.9 °C 1018.6 hPa Calm     95% 0.0 mm 195 W/m2
07:19 20.1 °C 19.3 °C 1018.6 hPa Calm     95% 0.0 mm 207 W/m2
07:24 20.4 °C 19.6 °C 1018.7 hPa Calm     95% 0.0 mm 221 W/m2
07:29 20.8 °C 20 °C 1018.7 hPa Calm     95% 0.0 mm 236 W/m2
07:34 21.3 °C 20.4 °C 1018.7 hPa Calm     95% 0.0 mm 250 W/m2
07:39 21.7 °C 20.9 °C 1018.7 hPa Calm     95% 0.0 mm 262 W/m2
07:44 22.2 °C 21.3 °C 1018.7 hPa Calm     95% 0.0 mm 278 W/m2
07:49 22.5 °C 21.7 °C 1018.7 hPa Calm     95% 0.0 mm 292 W/m2
07:54 22.8 °C 22 °C 1018.8 hPa Calm     95% 0.0 mm 304 W/m2
07:59 23.1 °C 22.3 °C 1018.8 hPa Calm     95% 0.0 mm 318 W/m2
08:04 23.4 °C 22.6 °C 1018.8 hPa Calm     95% 0.0 mm 334 W/m2
08:09 23.5 °C 22.7 °C 1018.8 hPa Calm     95% 0.0 mm 348 W/m2
08:14 23.6 °C 22.8 °C 1018.8 hPa Calm     95% 0.0 mm 360 W/m2
08:19 23.9 °C 23.1 °C 1018.8 hPa Calm     95% 0.0 mm 376 W/m2
08:24 24.1 °C 23.3 °C 1018.8 hPa Calm     95% 0.0 mm 388 W/m2
08:29 24.4 °C 23.6 °C 1018.8 hPa Calm     95% 0.0 mm 399 W/m2
08:34 24.7 °C 23.8 °C 1018.8 hPa Calm     95% 0.0 mm 413 W/m2
08:39 25 °C 24.2 °C 1018.8 hPa Calm     95% 0.0 mm 427 W/m2
08:44 25.2 °C 24.4 °C 1018.8 hPa Calm     95% 0.0 mm 434 W/m2
08:49 25.3 °C 24.5 °C 1018.8 hPa Calm     95% 0.0 mm 436 W/m2
08:54 25.5 °C 24.7 °C 1018.8 hPa Calm     95% 0.0 mm 432 W/m2
08:59 25.5 °C 24.7 °C 1018.8 hPa Calm     95% 0.0 mm 422 W/m2
09:04 25.7 °C 24.8 °C 1018.8 hPa Calm     95% 0.0 mm 413 W/m2
09:09 25.9 °C 25.1 °C 1018.7 hPa Calm     95% 0.0 mm 410 W/m2
09:14 26.2 °C 25.3 °C 1018.7 hPa Calm     95% 0.0 mm 404 W/m2
09:19 26.4 °C 25.5 °C 1018.7 hPa Calm     95% 0.0 mm 431 W/m2
09:24 26.6 °C 25.7 °C 1018.7 hPa Calm     95% 0.0 mm 466 W/m2
09:29 26.6 °C 25.7 °C 1018.6 hPa Calm     95% 0.0 mm 506 W/m2
09:34 26.7 °C 25.8 °C 1018.6 hPa Calm     95% 0.0 mm 552 W/m2
09:39 27 °C 26.1 °C 1018.6 hPa Calm     95% 0.0 mm 575 W/m2
09:44 26.9 °C 26 °C 1018.6 hPa Calm     95% 0.0 mm 594 W/m2
09:49 27 °C 26.1 °C 1018.5 hPa Calm     95% 0.0 mm 606 W/m2
09:54 27.3 °C 26.4 °C 1018.4 hPa Calm     95% 0.0 mm 621 W/m2
09:59 27.5 °C 26.6 °C 1018.4 hPa Calm     95% 0.0 mm 628 W/m2
10:04 27.7 °C 26.8 °C 1018.3 hPa Calm     95% 0.0 mm 635 W/m2
10:09 27.8 °C 26.9 °C 1018.2 hPa Calm     95% 0.0 mm 640 W/m2
10:14 28.1 °C 27.2 °C 1018.2 hPa Calm     95% 0.0 mm 645 W/m2
10:19 28.3 °C 27.4 °C 1018.1 hPa Calm     95% 0.0 mm 642 W/m2
10:24 28.4 °C 27.6 °C 1018.1 hPa Calm     95% 0.0 mm 635 W/m2
10:29 28.5 °C 27.6 °C 1018.1 hPa SSE 4.9 km/h 3.7 km/h 95% 0.0 mm 631 W/m2
10:34 28.4 °C 27.5 °C 1018.2 hPa ESE 3.9 km/h 6.4 km/h 95% 0.0 mm 619 W/m2
10:39 28.5 °C 27.6 °C 1018.1 hPa SE 2.4 km/h 8 km/h 95% 0.0 mm 596 W/m2
10:44 28.9 °C 28 °C 1018.1 hPa ESE 3.2 km/h 3.2 km/h 95% 0.0 mm 582 W/m2
10:49 29.1 °C 28.3 °C 1018.1 hPa South 3.6 km/h 3.4 km/h 95% 0.0 mm 575 W/m2
10:54 29.4 °C 28.5 °C 1018.1 hPa ESE 5.6 km/h 9.7 km/h 95% 0.0 mm 578 W/m2
10:59 29.6 °C 28.7 °C 1018.2 hPa East 5 km/h 6.4 km/h 95% 0.0 mm 599 W/m2
11:04 29.5 °C 28.6 °C 1018.4 hPa SE 3.6 km/h 8 km/h 95% 0.0 mm 621 W/m2
11:09 29.5 °C 28.6 °C 1018.3 hPa SE 5.7 km/h 6.4 km/h 95% 0.0 mm 661 W/m2
11:14 29.6 °C 28.7 °C 1018.3 hPa SE 4.9 km/h 6.4 km/h 95% 0.0 mm 701 W/m2
11:19 29.8 °C 29 °C 1018.3 hPa SSW 5.9 km/h 6.4 km/h 95% 0.0 mm 729 W/m2
11:24 30 °C 29.1 °C 1018.4 hPa SSE 4.4 km/h 8 km/h 95% 0.0 mm 751 W/m2
11:29 30.3 °C 29.4 °C 1018.4 hPa SSW 4 km/h 6.4 km/h 95% 0.0 mm 759 W/m2
11:34 30.4 °C 29.5 °C 1018.5 hPa SSE 3.1 km/h 4.8 km/h 95% 0.0 mm 770 W/m2
11:39 30.3 °C 29.4 °C 1018.5 hPa South 5.3 km/h 6.4 km/h 95% 0.0 mm 770 W/m2
11:44 30.3 °C 29.4 °C 1018.4 hPa South 6.3 km/h 6.4 km/h 95% 0.0 mm 779 W/m2
11:49 30.1 °C 29.2 °C 1018.4 hPa SE 4.2 km/h 8 km/h 95% 0.0 mm 773 W/m2
11:54 30.2 °C 29.3 °C 1018.3 hPa NNE 2.7 km/h 4.8 km/h 95% 0.0 mm 782 W/m2
11:59 30.5 °C 29.6 °C 1018.3 hPa ESE 2.9 km/h 3.2 km/h 95% 0.0 mm 779 W/m2
12:04 30.9 °C 30 °C 1018.3 hPa SSE 2.4 km/h 4.8 km/h 95% 0.0 mm 814 W/m2
12:09 30.9 °C 30 °C 1018.3 hPa South 3.2 km/h 5 km/h 95% 0.0 mm 819 W/m2
12:14 31.1 °C 30.2 °C 1018.4 hPa SSW 5.3 km/h 5.3 km/h 95% 0.0 mm 823 W/m2
12:19 31.3 °C 30.4 °C 1018.4 hPa SE 5.9 km/h 8 km/h 95% 0.0 mm 824 W/m2
12:24 31.2 °C 30.3 °C 1018.4 hPa WNW 3.9 km/h 9.7 km/h 95% 0.0 mm 846 W/m2
12:29 31.6 °C 30.7 °C 1018.3 hPa SSW 6.1 km/h 6.4 km/h 95% 0.0 mm 840 W/m2
12:34 31.9 °C 31 °C 1018.3 hPa ESE 2.4 km/h 8 km/h 95% 0.0 mm 847 W/m2
12:39 31.6 °C 30.7 °C 1018.2 hPa East 6.1 km/h 5.3 km/h 95% 0.0 mm 851 W/m2
12:44 31.6 °C 30.7 °C 1018.3 hPa ESE 3.9 km/h 8 km/h 95% 0.0 mm 858 W/m2
12:49 31.8 °C 30.9 °C 1018.3 hPa ENE 1.5 km/h 4.8 km/h 95% 0.0 mm 860 W/m2
12:54 32.1 °C 31.2 °C 1018.2 hPa ESE 6.6 km/h 8 km/h 95% 0.0 mm 863 W/m2
12:59 32 °C 31.1 °C 1018.2 hPa SE 5.2 km/h 8 km/h 95% 0.0 mm 860 W/m2
13:04 32.2 °C 31.3 °C 1018.1 hPa SSE 3.7 km/h 4.8 km/h 95% 0.0 mm 858 W/m2
13:09 32.2 °C 31.3 °C 1018.1 hPa ENE 4 km/h 6.4 km/h 95% 0.0 mm 860 W/m2
13:14 32.2 °C 31.3 °C 1018.0 hPa SSW 4.8 km/h 4.8 km/h 95% 0.0 mm 865 W/m2
13:19 32.4 °C 31.5 °C 1018.0 hPa East 4.9 km/h 4.8 km/h 95% 0.0 mm 861 W/m2
13:24 32.3 °C 31.4 °C 1018.0 hPa ENE 8.6 km/h 8 km/h 95% 0.0 mm 861 W/m2
13:29 32.3 °C 31.4 °C 1018.0 hPa ESE 4.7 km/h 14.5 km/h 95% 0.0 mm 863 W/m2
13:34 32.5 °C 31.6 °C 1017.9 hPa SE 6 km/h 8 km/h 95% 0.0 mm 863 W/m2
13:39 33 °C 32.1 °C 1017.9 hPa ESE 5.8 km/h 6.4 km/h 95% 0.0 mm 863 W/m2
13:44 33 °C 32.1 °C 1017.9 hPa SSE 4.9 km/h 9.7 km/h 95% 0.0 mm 863 W/m2
13:49 33 °C 32.1 °C 1017.8 hPa SSE 2.8 km/h 4.8 km/h 95% 0.0 mm 861 W/m2
13:54 33 °C 32.1 °C 1017.9 hPa SE 8.2 km/h 11.3 km/h 95% 0.0 mm 860 W/m2
13:59 33 °C 32.1 °C 1017.9 hPa SE 8.6 km/h 11.3 km/h 95% 0.0 mm 858 W/m2
14:04 32.9 °C 32 °C 1017.9 hPa East 8.5 km/h 12.9 km/h 95% 0.0 mm 856 W/m2
14:09 32.9 °C 32.1 °C 1017.9 hPa ENE 5.9 km/h 11.3 km/h 95% 0.0 mm 853 W/m2
14:14 33.1 °C 32.1 °C 1017.9 hPa South 5.1 km/h 4.8 km/h 95% 0.0 mm 844 W/m2
14:19 33.6 °C °C 1017.9 hPa SSE 4.9 km/h 8 km/h 95% 0.0 mm 838 W/m2
14:24 33.5 °C °C 1017.8 hPa East 5.6 km/h 4.8 km/h 95% 0.0 mm 837 W/m2
14:29 33.3 °C °C 1017.7 hPa East 2.9 km/h 8 km/h 95% 0.0 mm 831 W/m2
14:34 33.5 °C °C 1017.7 hPa East 7.1 km/h 5.5 km/h 95% 0.0 mm 826 W/m2
14:39 33.6 °C °C 1017.6 hPa SE 6.2 km/h 11.3 km/h 95% 0.0 mm 821 W/m2
14:44 33.6 °C °C 1017.5 hPa SSW 6.5 km/h 9.7 km/h 95% 0.0 mm 810 W/m2
14:49 33.6 °C °C 1017.5 hPa SE 6 km/h 6.4 km/h 95% 0.0 mm 800 W/m2
14:54 33.4 °C °C 1017.5 hPa East 7.6 km/h 9.7 km/h 95% 0.0 mm 793 W/m2
14:59 33.2 °C °C 1017.4 hPa East 5.6 km/h 9.7 km/h 95% 0.0 mm 782 W/m2
15:04 33.3 °C °C 1017.4 hPa East 2.8 km/h 8 km/h 95% 0.0 mm 779 W/m2
15:09 33.4 °C °C 1017.3 hPa East 3.8 km/h 4.8 km/h 95% 0.0 mm 770 W/m2
15:14 33.7 °C °C 1017.3 hPa SSE 5.2 km/h 4.8 km/h 95% 0.0 mm 759 W/m2
15:19 33.8 °C °C 1017.3 hPa South 3.8 km/h 8 km/h 95% 0.0 mm 749 W/m2
15:24 33.7 °C °C 1017.3 hPa ESE 4.3 km/h 4.8 km/h 95% 0.0 mm 738 W/m2
15:29 33.7 °C °C 1017.2 hPa East 5.6 km/h 4.8 km/h 95% 0.0 mm 729 W/m2
15:34 33.8 °C °C 1017.1 hPa SE 3.8 km/h 3.2 km/h 95% 0.0 mm 722 W/m2
15:39 34 °C °C 1017.1 hPa SE 5.2 km/h 6.4 km/h 95% 0.0 mm 714 W/m2
15:44 33.8 °C °C 1017.1 hPa SE 4.2 km/h 11.3 km/h 95% 0.0 mm 705 W/m2
15:49 33.8 °C °C 1017.0 hPa SE 4.9 km/h 3.4 km/h 95% 0.0 mm 698 W/m2
15:54 34.1 °C °C 1017.1 hPa SE 5.6 km/h 4.8 km/h 95% 0.0 mm 687 W/m2
15:59 33.7 °C °C 1017.0 hPa SSE 1.3 km/h 6.4 km/h 95% 0.0 mm 675 W/m2
16:04 33.8 °C °C 1017.0 hPa SE 2.9 km/h 3.2 km/h 95% 0.0 mm 663 W/m2
16:09 33.7 °C °C 1016.9 hPa NE 5.2 km/h 8 km/h 95% 0.0 mm 654 W/m2
16:14 33.7 °C °C 1016.9 hPa West 5.2 km/h 4.8 km/h 95% 0.0 mm 645 W/m2
16:19 33.7 °C °C 1016.9 hPa SSE 7.2 km/h 8 km/h 95% 0.0 mm 601 W/m2
16:24 33.6 °C °C 1017.0 hPa SSW 10.2 km/h 9.7 km/h 95% 0.0 mm 598 W/m2
16:29 33.5 °C °C 1017.0 hPa SSW 9.9 km/h 14.5 km/h 95% 0.0 mm 587 W/m2
16:34 33.4 °C °C 1017.0 hPa SSW 9.2 km/h 11.3 km/h 95% 0.0 mm 573 W/m2
16:39 33.3 °C °C 1017.0 hPa SSE 9.1 km/h 12.9 km/h 95% 0.0 mm 573 W/m2
16:44 33.1 °C 32.2 °C 1016.9 hPa SSW 9.1 km/h 14.5 km/h 95% 0.0 mm 536 W/m2
16:49 33.1 °C 32.2 °C 1016.9 hPa SSE 7 km/h 11.3 km/h 95% 0.0 mm 529 W/m2
16:54 33 °C 32.1 °C 1016.8 hPa SSE 7.8 km/h 9.7 km/h 95% 0.0 mm 519 W/m2
16:59 33.1 °C 32.2 °C 1016.8 hPa SSW 5.2 km/h 3.1 km/h 95% 0.0 mm 497 W/m2
17:04 33 °C 32.1 °C 1016.8 hPa South 5.4 km/h 4.8 km/h 95% 0.0 mm 492 W/m2
17:09 32.9 °C 32 °C 1016.8 hPa SSW 6.5 km/h 8 km/h 95% 0.0 mm 478 W/m2
17:14 33 °C 32.1 °C 1016.8 hPa SSE 3.8 km/h 9.7 km/h 95% 0.0 mm 462 W/m2
17:19 32.7 °C 31.8 °C 1016.7 hPa South 6.9 km/h 8 km/h 95% 0.0 mm 450 W/m2
17:24 32.7 °C 31.9 °C 1016.7 hPa SW 6 km/h 9.7 km/h 95% 0.0 mm 439 W/m2
17:29 32.9 °C 32 °C 1016.7 hPa SW 6 km/h 8 km/h 95% 0.0 mm 418 W/m2
17:34 32.8 °C 32 °C 1016.7 hPa SSW 6.2 km/h 9.7 km/h 95% 0.0 mm 408 W/m2
17:39 32.7 °C 31.8 °C 1016.7 hPa SSW 8.5 km/h 6.4 km/h 95% 0.0 mm 397 W/m2
17:44 32.9 °C 32 °C 1016.6 hPa SSW 4.3 km/h 2.9 km/h 95% 0.0 mm 376 W/m2
17:49 32.7 °C 31.8 °C 1016.6 hPa SSW 4.6 km/h 6.4 km/h 95% 0.0 mm 362 W/m2
17:54 32.5 °C 31.6 °C 1016.6 hPa South 5.3 km/h 6.4 km/h 95% 0.0 mm 345 W/m2
17:59 32.4 °C 31.5 °C 1016.6 hPa South 5.7 km/h 6.4 km/h 95% 0.0 mm 341 W/m2
18:04 32.2 °C 31.3 °C 1016.6 hPa SSW 6.1 km/h 9.7 km/h 95% 0.0 mm 327 W/m2
18:09 32.2 °C 31.3 °C 1016.5 hPa South 5.7 km/h 2.9 km/h 95% 0.0 mm 311 W/m2
18:14 32 °C 31.1 °C 1016.5 hPa SW 3.7 km/h 8 km/h 95% 0.0 mm 294 W/m2
18:16 31.9 °C 31.1 °C 1016.5 hPa SSW 4.6 km/h 3.2 km/h 95% 0.0 mm 279 W/m2
18:29 31.7 °C 30.8 °C 1016.5 hPa SSW 3.9 km/h 1.8 km/h 95% 0.0 mm 246 W/m2
18:33 31.7 °C 30.8 °C 1016.5 hPa SW 4.9 km/h 4.8 km/h 95% 0.0 mm 241 W/m2
18:44 31.4 °C 30.5 °C 1016.4 hPa SW 5.1 km/h 1.6 km/h 95% 0.0 mm 204 W/m2
18:49 31.3 °C 30.4 °C 1016.4 hPa SW 5.1 km/h 4.8 km/h 95% 0.0 mm 200 W/m2
18:54 31.2 °C 30.3 °C 1016.5 hPa SW 3.9 km/h 8 km/h 95% 0.0 mm 193 W/m2
18:59 31.1 °C 30.2 °C 1016.5 hPa SSW 5.6 km/h 8 km/h 95% 0.0 mm 174 W/m2
19:04 31 °C 30.1 °C 1016.5 hPa SW 4.1 km/h 6.4 km/h 95% 0.0 mm 165 W/m2
19:09 30.9 °C 30 °C 1016.6 hPa SSW 3.8 km/h 4.8 km/h 95% 0.0 mm 156 W/m2
19:14 30.8 °C 29.9 °C 1016.5 hPa SW 1.3 km/h 4.8 km/h 95% 0.0 mm 146 W/m2
19:19 30.8 °C 29.9 °C 1016.5 hPa SW 0.8 km/h 3.2 km/h 95% 0.0 mm 137 W/m2
19:24 30.7 °C 29.8 °C 1016.5 hPa Calm   3.2 km/h 95% 0.0 mm 121 W/m2
19:29 30.5 °C 29.6 °C 1016.5 hPa Calm     95% 0.0 mm 102 W/m2
19:34 30.3 °C 29.4 °C 1016.6 hPa SW 0.8 km/h 0.3 km/h 95% 0.0 mm 67 W/m2
19:39 30.1 °C 29.2 °C 1016.6 hPa Calm   1.6 km/h 95% 0.0 mm 62 W/m2
19:44 29.8 °C 28.9 °C 1016.6 hPa Calm     95% 0.0 mm 54 W/m2
19:49 29.5 °C 28.7 °C 1016.7 hPa Calm     95% 0.0 mm 49 W/m2
19:54 29.3 °C 28.4 °C 1016.7 hPa Calm     95% 0.0 mm 44 W/m2
19:59 29.1 °C 28.2 °C 1016.8 hPa Calm     95% 0.0 mm 42 W/m2
20:04 29 °C 28.1 °C 1016.8 hPa Calm     95% 0.0 mm 39 W/m2
20:09 28.7 °C 27.9 °C 1016.8 hPa Calm     95% 0.0 mm 33 W/m2
20:14 28.4 °C 27.5 °C 1016.8 hPa Calm     95% 0.0 mm 28 W/m2
20:19 28 °C 27.1 °C 1016.8 hPa Calm     95% 0.0 mm 23 W/m2
20:24 27.7 °C 26.8 °C 1016.8 hPa Calm     95% 0.0 mm 18 W/m2
20:29 27.5 °C 26.6 °C 1016.8 hPa Calm     95% 0.0 mm 14 W/m2
20:34 27.2 °C 26.3 °C 1016.8 hPa Calm     95% 0.0 mm 11 W/m2
20:39 27 °C 26.1 °C 1016.8 hPa Calm     95% 0.0 mm 7 W/m2
20:44 26.7 °C 25.8 °C 1016.9 hPa Calm     95% 0.0 mm 5 W/m2
20:49 26.5 °C 25.6 °C 1016.9 hPa Calm     95% 0.0 mm 0 W/m2
20:54 26.1 °C 25.2 °C 1016.9 hPa Calm     95% 0.0 mm 0 W/m2
20:59 25.9 °C 25 °C 1017.0 hPa Calm     95% 0.0 mm 0 W/m2
21:04 25.7 °C 24.8 °C 1017.0 hPa Calm     95% 0.0 mm 0 W/m2
21:09 25.5 °C 24.7 °C 1017.1 hPa Calm     95% 0.0 mm 0 W/m2
21:14 25.2 °C 24.4 °C 1017.1 hPa Calm     95% 0.0 mm 0 W/m2
21:15 25 °C 24.2 °C 1017.1 hPa Calm     95% 0.0 mm 0 W/m2
Juneau County Weather
Con i complimenti di Weather Underground - 4 mb